Matsumaru No.12 — JI3645 — position and weather

sailwx.info

Track history (hours):
 
Tides and Currents Weather Stations Pressure Air Temp Water Temp Dewpoint Dewpoint Depression Visibility Wind Speed Wind Dir Waves Ship Positions

Matsumaru No.12

Last reported at 2018-May-25 16:54 UTC. Time now 2018-May-25 18:51 UTC.
Position N 33°48' E 135°07'.

Length 85 m; draft 4.8 m.

Type: Tanker. MMSI: 431300697.

Date/timePositionNaut miles runAvg speedWind from/ knotsBaromVisibWave heightAir tempDewpointWater temp
2018-May-25 16:54N 33°48' E 135°07'613.8
2018-May-25 16:30N 33°52' E 135°02'713.6
2018-May-25 15:57N 33°59' E 135°00'613.9
2018-May-25 15:31N 34°06' E 134°60'714.1
2018-May-25 15:00N 34°13' E 134°59'714.8
2018-May-25 14:31N 34°20' E 134°60'714.6
2018-May-25 14:00N 34°27' E 135°02'714.0
2018-May-25 13:30N 34°34' E 135°03'611.7
2018-May-25 13:00N 34°36' E 134°57'713.5
2018-May-25 12:30N 34°33' E 134°49'713.3
2018-May-25 12:00N 34°31' E 134°42'713.5
2018-May-25 11:30N 34°28' E 134°34'713.9
2018-May-25 11:00N 34°25' E 134°27'713.5
2018-May-25 10:31N 34°23' E 134°19'1312.5
2018-May-25 09:26N 34°26' E 134°03'12 0.3
2018-May-23 14:53N 34°25' E 134°18'511.7
2018-May-23 14:27N 34°26' E 134°24'511.7
2018-May-23 14:00N 34°28' E 134°30'611.5
2018-May-23 13:31N 34°30' E 134°36'611.7
2018-May-23 13:00N 34°32' E 134°43'611.5
2018-May-23 12:30N 34°34' E 134°49'710.7
2018-May-23 11:50N 34°37' E 134°57'3 9.9
2018-May-23 11:30N 34°37' E 135°01'5 9.8
2018-May-23 11:00N 34°34' E 135°06'612.0
2018-May-23 10:31N 34°28' E 135°04'612.0
2018-May-23 10:00N 34°23' E 135°02'611.7
2018-May-23 09:31N 34°17' E 134°59'612.1
2018-May-23 09:00N 34°11' E 134°60'612.3
2018-May-23 08:31N 34°05' E 135°01'612.2
2018-May-23 08:01N 33°59' E 135°01'712.1
2018-May-23 07:24N 33°51' E 135°02'512.2
2018-May-23 06:58N 33°48' E 135°06'22410.8
2018-May-22 10:10N 34°54' E 139°25'3 9.0
2018-May-22 09:48N 34°56' E 139°29'3 9.0
2018-May-22 09:28N 34°58' E 139°31'4 9.3
2018-May-22 09:01N 35°01' E 139°35'5 9.8
2018-May-22 08:30N 35°04' E 139°40'612.2
2018-May-22 08:00N 35°09' E 139°44'611.9
2018-May-22 07:30N 35°15' E 139°46'612.2
2018-May-22 07:00N 35°20' E 139°42'611.1
2018-May-22 06:30N 35°25' E 139°44'611.9
2018-May-22 06:01N 35°29' E 139°50'911.9
2018-May-22 05:15N 35°32' E 140°00'2 9.0
2018-May-22 05:00N 35°32' E 140°03'0 0.0
2018-May-22 00:49N 35°32' E 140°03'2 6.4
2018-May-22 00:30N 35°32' E 140°01'713.2
2018-May-22 00:00N 35°29' E 139°53'713.5
2018-May-21 23:30N 35°25' E 139°47'4 8.0
2018-May-21 23:00N 35°22' E 139°44'0 0.0
2018-May-21 22:29N 35°22' E 139°44'0 0.0
2018-May-21 21:59N 35°22' E 139°44'0 0.1
2018-May-21 21:29N 35°22' E 139°44'4 7.6
2018-May-21 21:00N 35°18' E 139°45'612.5
2018-May-21 20:30N 35°12' E 139°47'612.9
2018-May-21 20:00N 35°06' E 139°44'612.9
2018-May-21 19:30N 35°01' E 139°40'714.1
2018-May-21 19:01N 34°56' E 139°33'231 6.9
2018-May-20 09:19N 33°47' E 135°06'411.9
2018-May-20 09:00N 33°50' E 135°03'612.2
2018-May-20 08:29N 33°56' E 135°00'612.4
2018-May-20 07:59N 34°02' E 134°59'612.8
2018-May-20 07:30N 34°08' E 134°59'714.0
2018-May-20 07:01N 34°15' E 134°59'713.4
2018-May-20 06:30N 34°22' E 135°00'612.5
2018-May-20 06:00N 34°26' E 135°06'612.7
2018-May-20 05:30N 34°30' E 135°12'612.2
2018-May-20 05:00N 34°34' E 135°18'611.1
2018-May-20 04:28N 34°36' E 135°24'2 2.7
2018-May-20 03:46N 34°35' E 135°26'0 0.0
2018-May-20 03:28N 34°35' E 135°26'0 0.1
2018-May-19 22:40N 34°35' E 135°25'0 1.4
2018-May-19 22:30N 34°35' E 135°25'1 2.8
2018-May-19 21:59N 34°35' E 135°27'0 0.0
2018-May-19 21:26N 34°35' E 135°27'0 0.0
2018-May-19 21:00N 34°35' E 135°27'0 0.0
2018-May-19 09:48N 34°35' E 135°27'1 4.2
2018-May-19 09:30N 34°35' E 135°25'0 0.1
2018-May-19 02:48N 34°35' E 135°25'2 7.0
2018-May-19 02:30N 34°36' E 135°24'510.7
2018-May-19 02:00N 34°34' E 135°18'510.9
2018-May-19 01:30N 34°30' E 135°13'510.7
2018-May-19 01:00N 34°26' E 135°09'511.0
2018-May-19 00:30N 34°22' E 135°04'511.0
2018-May-19 00:00N 34°18' E 134°60'611.2
2018-May-18 23:30N 34°13' E 134°59'611.5
2018-May-18 23:00N 34°07' E 135°00'611.1
2018-May-18 22:30N 34°01' E 135°01'611.0
2018-May-18 21:59N 33°56' E 135°01'510.3
2018-May-18 21:30N 33°51' E 135°02'710.7
2018-May-18 20:52N 33°46' E 135°07'2 0.0
2018-May-16 16:58N 33°44' E 135°10'713.0
2018-May-16 16:27N 33°49' E 135°05'613.2
2018-May-16 16:01N 33°54' E 135°01'713.1
2018-May-16 15:29N 34°01' E 134°60'613.1
2018-May-16 15:01N 34°07' E 134°59'613.0
2018-May-16 14:31N 34°14' E 134°59'612.2
2018-May-16 14:01N 34°20' E 134°59'611.6
2018-May-16 13:31N 34°25' E 135°01'612.9
2018-May-16 13:01N 34°32' E 135°02'5 9.6
2018-May-16 12:30N 34°36' E 135°02'6 9.7
2018-May-16 11:54N 34°35' E 134°55'510.2
2018-May-16 11:23N 34°33' E 134°49'511.8
2018-May-16 10:55N 34°31' E 134°43'512.7
2018-May-16 10:30N 34°29' E 134°37'713.9
2018-May-16 10:00N 34°26' E 134°29'713.2
2018-May-16 09:27N 34°24' E 134°21'  
Track history (hours):
 
Tides and Currents Weather Stations Pressure Air Temp Water Temp Dewpoint Dewpoint Depression Visibility Wind Speed Wind Dir Waves Ship Positions

Matsumaru No.12

Last reported at 2018-May-25 16:54 UTC. Time now 2018-May-25 18:51 UTC.
Position N 33°48' E 135°07'.

Length 85 m; draft 4.8 m.

Type: Tanker. MMSI: 431300697.

Date/timePositionNaut miles runAvg speedWind from/ knotsBaromVisibWave heightAir tempDewpointWater temp
2018-May-25 16:54N 33°48' E 135°07'613.8
2018-May-25 16:30N 33°52' E 135°02'713.6
2018-May-25 15:57N 33°59' E 135°00'613.9
2018-May-25 15:31N 34°06' E 134°60'714.1
2018-May-25 15:00N 34°13' E 134°59'714.8
2018-May-25 14:31N 34°20' E 134°60'714.6
2018-May-25 14:00N 34°27' E 135°02'714.0
2018-May-25 13:30N 34°34' E 135°03'611.7
2018-May-25 13:00N 34°36' E 134°57'713.5
2018-May-25 12:30N 34°33' E 134°49'713.3
2018-May-25 12:00N 34°31' E 134°42'713.5
2018-May-25 11:30N 34°28' E 134°34'713.9
2018-May-25 11:00N 34°25' E 134°27'713.5
2018-May-25 10:31N 34°23' E 134°19'1312.5
2018-May-25 09:26N 34°26' E 134°03'12 0.3
2018-May-23 14:53N 34°25' E 134°18'511.7
2018-May-23 14:27N 34°26' E 134°24'511.7
2018-May-23 14:00N 34°28' E 134°30'611.5
2018-May-23 13:31N 34°30' E 134°36'611.7
2018-May-23 13:00N 34°32' E 134°43'611.5
2018-May-23 12:30N 34°34' E 134°49'710.7
2018-May-23 11:50N 34°37' E 134°57'3 9.9
2018-May-23 11:30N 34°37' E 135°01'5 9.8
2018-May-23 11:00N 34°34' E 135°06'612.0
2018-May-23 10:31N 34°28' E 135°04'612.0
2018-May-23 10:00N 34°23' E 135°02'611.7
2018-May-23 09:31N 34°17' E 134°59'612.1
2018-May-23 09:00N 34°11' E 134°60'612.3
2018-May-23 08:31N 34°05' E 135°01'612.2
2018-May-23 08:01N 33°59' E 135°01'712.1
2018-May-23 07:24N 33°51' E 135°02'512.2
2018-May-23 06:58N 33°48' E 135°06'22410.8
2018-May-22 10:10N 34°54' E 139°25'3 9.0
2018-May-22 09:48N 34°56' E 139°29'3 9.0
2018-May-22 09:28N 34°58' E 139°31'4 9.3
2018-May-22 09:01N 35°01' E 139°35'5 9.8
2018-May-22 08:30N 35°04' E 139°40'612.2
2018-May-22 08:00N 35°09' E 139°44'611.9
2018-May-22 07:30N 35°15' E 139°46'612.2
2018-May-22 07:00N 35°20' E 139°42'611.1
2018-May-22 06:30N 35°25' E 139°44'611.9
2018-May-22 06:01N 35°29' E 139°50'911.9
2018-May-22 05:15N 35°32' E 140°00'2 9.0
2018-May-22 05:00N 35°32' E 140°03'0 0.0
2018-May-22 00:49N 35°32' E 140°03'2 6.4
2018-May-22 00:30N 35°32' E 140°01'713.2
2018-May-22 00:00N 35°29' E 139°53'713.5
2018-May-21 23:30N 35°25' E 139°47'4 8.0
2018-May-21 23:00N 35°22' E 139°44'0 0.0
2018-May-21 22:29N 35°22' E 139°44'0 0.0
2018-May-21 21:59N 35°22' E 139°44'0 0.1
2018-May-21 21:29N 35°22' E 139°44'4 7.6
2018-May-21 21:00N 35°18' E 139°45'612.5
2018-May-21 20:30N 35°12' E 139°47'612.9
2018-May-21 20:00N 35°06' E 139°44'612.9
2018-May-21 19:30N 35°01' E 139°40'714.1
2018-May-21 19:01N 34°56' E 139°33'231 6.9
2018-May-20 09:19N 33°47' E 135°06'411.9
2018-May-20 09:00N 33°50' E 135°03'612.2
2018-May-20 08:29N 33°56' E 135°00'612.4
2018-May-20 07:59N 34°02' E 134°59'612.8
2018-May-20 07:30N 34°08' E 134°59'714.0
2018-May-20 07:01N 34°15' E 134°59'713.4
2018-May-20 06:30N 34°22' E 135°00'612.5
2018-May-20 06:00N 34°26' E 135°06'612.7
2018-May-20 05:30N 34°30' E 135°12'612.2
2018-May-20 05:00N 34°34' E 135°18'611.1
2018-May-20 04:28N 34°36' E 135°24'2 2.7
2018-May-20 03:46N 34°35' E 135°26'0 0.0
2018-May-20 03:28N 34°35' E 135°26'0 0.1
2018-May-19 22:40N 34°35' E 135°25'0 1.4
2018-May-19 22:30N 34°35' E 135°25'1 2.8
2018-May-19 21:59N 34°35' E 135°27'0 0.0
2018-May-19 21:26N 34°35' E 135°27'0 0.0
2018-May-19 21:00N 34°35' E 135°27'0 0.0
2018-May-19 09:48N 34°35' E 135°27'1 4.2
2018-May-19 09:30N 34°35' E 135°25'0 0.1
2018-May-19 02:48N 34°35' E 135°25'2 7.0
2018-May-19 02:30N 34°36' E 135°24'510.7
2018-May-19 02:00N 34°34' E 135°18'510.9
2018-May-19 01:30N 34°30' E 135°13'510.7
2018-May-19 01:00N 34°26' E 135°09'511.0
2018-May-19 00:30N 34°22' E 135°04'511.0
2018-May-19 00:00N 34°18' E 134°60'611.2
2018-May-18 23:30N 34°13' E 134°59'611.5
2018-May-18 23:00N 34°07' E 135°00'611.1
2018-May-18 22:30N 34°01' E 135°01'611.0
2018-May-18 21:59N 33°56' E 135°01'510.3
2018-May-18 21:30N 33°51' E 135°02'710.7
2018-May-18 20:52N 33°46' E 135°07'2 0.0
2018-May-16 16:58N 33°44' E 135°10'713.0
2018-May-16 16:27N 33°49' E 135°05'613.2
2018-May-16 16:01N 33°54' E 135°01'713.1
2018-May-16 15:29N 34°01' E 134°60'613.1
2018-May-16 15:01N 34°07' E 134°59'613.0
2018-May-16 14:31N 34°14' E 134°59'612.2
2018-May-16 14:01N 34°20' E 134°59'611.6
2018-May-16 13:31N 34°25' E 135°01'612.9
2018-May-16 13:01N 34°32' E 135°02'5 9.6
2018-May-16 12:30N 34°36' E 135°02'6 9.7
2018-May-16 11:54N 34°35' E 134°55'510.2
2018-May-16 11:23N 34°33' E 134°49'511.8
2018-May-16 10:55N 34°31' E 134°43'512.7
2018-May-16 10:30N 34°29' E 134°37'713.9
2018-May-16 10:00N 34°26' E 134°29'713.2
2018-May-16 09:27N 34°24' E 134°21'  

Dump ship's entire track history